Impacts METAR Board INFO
IDs:

KMEM - Memphis Intl, TN, US

Updated at: 0140 UTC 20 Feb 2018
Potential Impact None Slight Moderate High
Time19/13Z 19/14Z 19/15Z 19/16Z 19/17Z 19/18Z 19/19Z 19/20Z 19/21Z 19/22Z 19/23Z 20/00Z 20/01Z
VIS10 10 10 10 10 10 10 10 10 10 10 10 10
CIG9 9 12 15 35 250 250 250 250 250 250 180 180
CoverOVCOVCOVCOVCOVCBKNBKNBKNBKNBKNBKNBKNBKN
FltCatIFRIFRMVFRMVFRVFRVFRVFRVFRVFRVFRVFRVFRVFR
WX--------------------------
WDir180190180180180190200190210190170150140
WSpd12 13 13 15 15 19 20 24 14 12 10 5 5
WGst-- 21 -- -- -- 27 30 31 24 -- -- -- --
Raw hourly METARs
KMEM 191254Z 18012KT 10SM OVC009 16/15 A3008 RMK AO2 SLP184 T01610150
KMEM 191354Z 19013G21KT 10SM OVC009 17/16 A3010 RMK AO2 SLP191 T01720161
KMEM 191454Z 18013KT 10SM OVC012 18/16 A3010 RMK AO2 SLP190 T01830161 51009
KMEM 191554Z 18015KT 10SM BKN015 OVC020 20/16 A3010 RMK AO2 SLP189 T02000161
KMEM 191654Z 18015KT 10SM SCT022 BKN035 OVC250 21/16 A3010 RMK AO2 PK WND 18026/1643 SLP190 T02110161
KMEM 191754Z 19019G27KT 10SM SCT027 BKN250 23/16 A3007 RMK AO2 PK WND 18027/1748 SLP181 T02280161 10228 20150 58009
KMEM 191854Z 20020G30KT 10SM SCT032 BKN250 24/16 A3003 RMK AO2 PK WND 19030/1852 SLP166 T02440156
KMEM 191954Z 19024G31KT 10SM FEW035 BKN250 25/14 A3002 RMK AO2 PK WND 19031/1954 SLP162 T02500139
KMEM 192054Z 21014G24KT 10SM FEW035 SCT150 BKN250 24/14 A3002 RMK AO2 PK WND 19031/1955 SLP165 T02440144 55016
KMEM 192154Z 19012KT 10SM FEW035 SCT090 BKN250 24/13 A3002 RMK AO2 PK WND 19028/2133 SLP162 T02390133
KMEM 192254Z 17010KT 10SM FEW035 FEW090 SCT180 BKN250 24/13 A3002 RMK AO2 PK WND 19027/2212 SLP163 T02390128
KMEM 192354Z 15005KT 10SM FEW050 SCT120 BKN180 BKN250 22/13 A3003 RMK AO2 SLP167 T02170133 10250 20217 53002
KMEM 200054Z 14005KT 10SM FEW110 BKN180 BKN250 22/12 A3003 RMK AO2 SLP167 T02170122